createdAt,value
2019-05-03T00:01:12.904Z,18.37
2019-05-03T00:03:42.527Z,18.77
2019-05-03T00:06:12.057Z,19.47
2019-05-03T00:08:41.517Z,17.73
2019-05-03T00:11:10.081Z,17.67
2019-05-03T00:13:38.498Z,18.47
2019-05-03T00:16:12.217Z,19.40
2019-05-03T00:18:42.208Z,18.50
2019-05-03T00:21:11.688Z,17.87
2019-05-03T00:23:41.774Z,18.90
2019-05-03T00:26:12.003Z,18.70
2019-05-03T00:28:42.526Z,18.30
2019-05-03T00:31:12.480Z,18.47
2019-05-03T00:33:42.864Z,18.03
2019-05-03T00:36:15.601Z,19.10
2019-05-03T00:38:44.104Z,17.60
2019-05-03T00:41:12.601Z,18.57
2019-05-03T00:43:42.358Z,17.80
2019-05-03T00:46:12.644Z,17.37
2019-05-03T00:48:43.036Z,19.30
2019-05-03T00:51:11.785Z,17.50
2019-05-03T00:53:42.268Z,16.97
2019-05-03T00:56:12.144Z,19.83
2019-05-03T00:58:48.597Z,18.33
2019-05-03T01:01:17.880Z,18.10
2019-05-03T01:03:52.603Z,18.53
2019-05-03T01:06:22.377Z,17.70
2019-05-03T01:08:52.253Z,18.37
2019-05-03T01:11:22.273Z,17.77
2019-05-03T01:13:52.158Z,16.43
2019-05-03T01:16:22.801Z,16.87
2019-05-03T01:18:52.330Z,17.57
2019-05-03T01:21:22.573Z,18.30
2019-05-03T01:23:52.583Z,16.47
2019-05-03T01:26:22.632Z,16.23
2019-05-03T01:28:52.095Z,15.90
2019-05-03T01:31:22.652Z,15.93
2019-05-03T01:33:51.663Z,15.87
2019-05-03T01:36:22.586Z,16.37
2019-05-03T01:38:52.959Z,15.53
2019-05-03T01:41:21.737Z,15.40
2019-05-03T01:43:52.421Z,15.47
2019-05-03T01:46:22.592Z,15.33
2019-05-03T01:49:01.657Z,15.57
2019-05-03T01:51:44.080Z,15.63
2019-05-03T01:54:12.593Z,15.20
2019-05-03T01:56:49.995Z,16.37
2019-05-03T01:59:12.324Z,14.90
2019-05-03T02:01:45.314Z,14.77
2019-05-03T02:04:15.368Z,16.07
2019-05-03T02:06:43.804Z,15.40
2019-05-03T02:09:12.332Z,14.53
2019-05-03T02:11:42.157Z,14.57
2019-05-03T02:14:12.403Z,15.20
2019-05-03T02:16:42.021Z,14.17
2019-05-03T02:19:12.512Z,15.20
2019-05-03T02:21:41.693Z,14.07
2019-05-03T02:24:11.844Z,15.07
2019-05-03T02:26:42.347Z,14.60
2019-05-03T02:29:12.555Z,15.57
2019-05-03T02:31:43.691Z,13.67
2019-05-03T02:34:12.555Z,13.87
2019-05-03T02:36:42.860Z,13.93
2019-05-03T02:39:13.539Z,13.30
2019-05-03T02:41:45.233Z,13.93
2019-05-03T02:44:15.619Z,14.20
2019-05-03T02:46:45.808Z,13.80
2019-05-03T02:49:21.850Z,13.13
2019-05-03T02:51:50.264Z,12.80
2019-05-03T02:54:18.689Z,13.47
2019-05-03T02:56:47.106Z,13.73
2019-05-03T02:59:16.057Z,13.37
2019-05-03T03:01:46.542Z,13.37
2019-05-03T03:04:15.933Z,13.87
2019-05-03T03:06:47.174Z,12.97
2019-05-03T03:09:19.136Z,13.13
2019-05-03T03:11:55.961Z,12.57
2019-05-03T03:14:26.998Z,13.77
2019-05-03T03:16:58.089Z,12.73
2019-05-03T03:19:31.230Z,13.90
2019-05-03T03:22:05.963Z,14.17
2019-05-03T03:24:37.107Z,13.40
2019-05-03T03:27:07.352Z,13.27
2019-05-03T03:29:36.443Z,13.87
2019-05-03T03:32:19.969Z,13.10
2019-05-03T03:35:03.396Z,14.70
2019-05-03T03:37:30.670Z,13.83
2019-05-03T03:39:59.272Z,14.80
2019-05-03T03:42:29.046Z,13.47
2019-05-03T03:44:58.408Z,13.67
2019-05-03T03:47:30.083Z,13.90
2019-05-03T03:49:59.698Z,14.07
2019-05-03T03:52:30.204Z,14.10
2019-05-03T03:55:00.868Z,13.43
2019-05-03T03:57:31.849Z,14.07
2019-05-03T04:00:01.262Z,13.40
2019-05-03T04:02:29.801Z,12.93
2019-05-03T04:04:58.438Z,13.97
2019-05-03T04:07:27.515Z,13.17
2019-05-03T04:09:56.352Z,12.90
2019-05-03T04:12:26.469Z,13.23
2019-05-03T04:14:59.605Z,13.43
2019-05-03T04:17:29.741Z,12.97
2019-05-03T04:19:59.119Z,13.93
2019-05-03T04:22:27.678Z,13.40
2019-05-03T04:24:56.246Z,14.10
2019-05-03T04:27:45.559Z,15.27
2019-05-03T04:30:16.550Z,16.40
2019-05-03T04:32:45.512Z,15.33
2019-05-03T04:35:16.466Z,17.57
2019-05-03T04:37:45.392Z,15.87
2019-05-03T04:40:15.579Z,17.70
2019-05-03T04:42:46.507Z,18.93
2019-05-03T04:45:36.733Z,18.23
2019-05-03T04:48:05.980Z,18.13
2019-05-03T04:50:36.649Z,20.17
2019-05-03T04:53:25.916Z,21.40
2019-05-03T04:55:55.920Z,21.00
2019-05-03T04:58:25.823Z,20.23
2019-05-03T05:00:55.421Z,21.63
2019-05-03T05:03:26.433Z,21.13
2019-05-03T05:05:55.524Z,20.63
2019-05-03T05:08:25.309Z,21.17
2019-05-03T05:10:55.987Z,20.17
2019-05-03T05:13:25.088Z,21.13
2019-05-03T05:15:55.132Z,21.60
2019-05-03T05:18:31.156Z,20.33
2019-05-03T05:21:04.658Z,20.57
2019-05-03T05:24:02.726Z,20.43
2019-05-03T05:26:41.749Z,20.73
2019-05-03T05:29:21.313Z,20.20
2019-05-03T05:31:49.726Z,20.80
2019-05-03T05:34:18.163Z,19.80
2019-05-03T05:36:46.999Z,19.93
2019-05-03T05:39:18.725Z,19.23
2019-05-03T05:41:47.025Z,20.77
2019-05-03T05:44:15.444Z,20.27
2019-05-03T05:47:07.842Z,20.00
2019-05-03T05:49:40.631Z,20.77
2019-05-03T05:52:09.052Z,22.13
2019-05-03T05:54:39.479Z,20.93
2019-05-03T05:57:25.624Z,21.20
2019-05-03T06:00:05.008Z,21.20
2019-05-03T06:02:35.934Z,22.00
2019-05-03T06:05:04.907Z,22.63
2019-05-03T06:07:35.246Z,21.30
2019-05-03T06:10:18.634Z,23.23
2019-05-03T06:12:48.980Z,21.07
2019-05-03T06:15:54.847Z,22.40
2019-05-03T06:18:25.170Z,22.77
2019-05-03T06:20:54.953Z,21.80
2019-05-03T06:23:25.145Z,20.43
2019-05-03T06:25:54.555Z,18.20
2019-05-03T06:28:25.190Z,17.97
2019-05-03T06:31:10.461Z,18.10
2019-05-03T06:33:48.645Z,15.90
2019-05-03T06:36:24.336Z,14.83
2019-05-03T06:38:54.747Z,15.70
2019-05-03T06:41:24.929Z,14.00
2019-05-03T06:43:52.888Z,16.67
2019-05-03T06:46:23.486Z,12.43
2019-05-03T06:48:54.299Z,13.83
2019-05-03T06:51:24.736Z,11.70
2019-05-03T06:53:54.671Z,11.50
2019-05-03T06:56:24.991Z,13.10
2019-05-03T06:58:54.738Z,10.90
2019-05-03T07:01:25.289Z,12.17
2019-05-03T07:03:55.332Z,11.27
2019-05-03T07:06:44.827Z,9.47
2019-05-03T07:09:32.107Z,10.87
2019-05-03T07:12:00.526Z,11.10
2019-05-03T07:14:37.491Z,11.23
2019-05-03T07:17:05.992Z,12.33
2019-05-03T07:19:37.852Z,11.83
2019-05-03T07:22:15.237Z,12.57
2019-05-03T07:24:45.501Z,13.57
2019-05-03T07:27:15.931Z,13.67
2019-05-03T07:29:44.607Z,14.37
2019-05-03T07:32:15.477Z,14.00
2019-05-03T07:34:45.301Z,13.97
2019-05-03T07:37:14.565Z,15.07
2019-05-03T07:39:42.788Z,13.93
2019-05-03T07:42:11.289Z,13.90
2019-05-03T07:44:39.747Z,13.63
2019-05-03T07:47:08.888Z,12.10
2019-05-03T07:49:38.610Z,15.13
2019-05-03T07:52:07.026Z,14.57
2019-05-03T07:54:35.719Z,16.50
2019-05-03T07:57:10.553Z,14.70
2019-05-03T07:59:39.225Z,14.37
2019-05-03T08:02:07.731Z,13.67
2019-05-03T08:04:36.607Z,14.17
2019-05-03T08:07:05.021Z,17.20
2019-05-03T08:09:35.010Z,15.00
2019-05-03T08:12:05.137Z,13.27
2019-05-03T08:14:35.686Z,15.83
2019-05-03T08:17:05.030Z,15.10
2019-05-03T08:19:35.897Z,13.07
2019-05-03T08:22:25.607Z,12.67
2019-05-03T08:24:55.501Z,11.67
2019-05-03T08:27:25.200Z,14.00
2019-05-03T08:29:55.565Z,14.00
2019-05-03T08:32:25.241Z,8.47
2019-05-03T08:35:11.902Z,7.90
2019-05-03T08:38:01.904Z,7.90
2019-05-03T08:40:49.701Z,7.27
2019-05-03T08:43:18.356Z,7.97
2019-05-03T08:45:46.838Z,8.73
2019-05-03T08:48:15.237Z,8.63
2019-05-03T08:50:45.094Z,9.10
2019-05-03T08:53:15.466Z,8.93
2019-05-03T08:55:44.966Z,8.13
2019-05-03T08:58:15.533Z,8.17
2019-05-03T09:00:45.432Z,9.70
2019-05-03T09:03:14.535Z,9.80
2019-05-03T09:05:45.327Z,9.00
2019-05-03T09:08:15.557Z,9.60
2019-05-03T09:10:54.418Z,8.80
2019-05-03T09:13:22.793Z,8.93
2019-05-03T09:15:52.557Z,10.87
2019-05-03T09:21:05.113Z,8.73
2019-05-03T09:23:35.645Z,9.17
2019-05-03T09:26:04.635Z,7.77
2019-05-03T09:28:34.869Z,11.30
2019-05-03T09:31:04.675Z,9.83
2019-05-03T09:33:33.174Z,9.70
2019-05-03T09:36:02.351Z,8.83
2019-05-03T09:38:30.921Z,7.97
2019-05-03T09:40:59.357Z,9.10
2019-05-03T09:43:27.779Z,9.97
2019-05-03T09:45:57.325Z,9.30
2019-05-03T09:48:34.712Z,9.07
2019-05-03T09:51:05.160Z,9.23
2019-05-03T09:53:35.768Z,8.47
2019-05-03T09:56:05.104Z,9.00
2019-05-03T09:58:37.763Z,8.33
2019-05-03T10:01:06.082Z,8.60
2019-05-03T10:03:34.622Z,7.97
2019-05-03T10:06:04.846Z,8.73
2019-05-03T10:08:53.152Z,8.33
2019-05-03T10:11:21.994Z,7.97
2019-05-03T10:13:50.410Z,7.40
2019-05-03T10:16:19.977Z,8.63
2019-05-03T10:18:49.090Z,8.53
2019-05-03T10:21:17.617Z,9.03
2019-05-03T10:23:46.011Z,8.30
2019-05-03T10:26:15.233Z,8.37
2019-05-03T10:28:43.697Z,7.53
2019-05-03T10:31:12.117Z,7.57
2019-05-03T10:33:44.786Z,7.67
2019-05-03T10:36:15.190Z,7.83
2019-05-03T10:39:04.671Z,7.37
2019-05-03T10:41:34.635Z,6.90
2019-05-03T10:44:02.833Z,7.13
2019-05-03T10:46:50.625Z,6.50
2019-05-03T10:49:18.729Z,7.63
2019-05-03T10:51:51.260Z,7.80
2019-05-03T10:54:19.457Z,7.63
2019-05-03T10:56:49.640Z,7.33
2019-05-03T10:59:18.794Z,7.93
2019-05-03T11:02:05.182Z,8.70
2019-05-03T11:04:35.483Z,8.53
2019-05-03T11:07:05.303Z,9.63
2019-05-03T11:09:48.106Z,9.27
2019-05-03T11:12:05.350Z,9.30
2019-05-03T11:14:35.046Z,9.43
2019-05-03T11:17:05.492Z,8.80
2019-05-03T11:19:34.741Z,9.20
2019-05-03T11:22:05.511Z,9.10
2019-05-03T11:24:34.943Z,9.00
2019-05-03T11:27:04.810Z,8.77
2019-05-03T11:29:35.400Z,8.83
2019-05-03T11:32:10.076Z,8.47
2019-05-03T11:34:48.653Z,8.53
2019-05-03T11:37:21.677Z,8.60
2019-05-03T11:39:51.113Z,8.93
2019-05-03T11:42:19.703Z,8.47
2019-05-03T11:44:47.940Z,9.10
2019-05-03T11:47:16.033Z,8.90
2019-05-03T11:49:45.455Z,8.20
2019-05-03T11:52:15.977Z,8.57
2019-05-03T11:54:45.495Z,9.10
2019-05-03T11:57:15.752Z,8.57
2019-05-03T11:59:45.273Z,8.57
2019-05-03T12:02:15.520Z,8.83
2019-05-03T12:04:45.837Z,9.37
2019-05-03T12:07:18.398Z,8.50
2019-05-03T12:09:46.226Z,6.90
2019-05-03T12:12:16.213Z,7.80
2019-05-03T12:14:45.345Z,8.27
2019-05-03T12:17:25.809Z,7.10
2019-05-03T12:19:49.003Z,7.63
2019-05-03T12:22:18.524Z,7.50
2019-05-03T12:24:47.621Z,7.20
2019-05-03T12:27:16.561Z,7.67
2019-05-03T12:29:45.021Z,7.30
2019-05-03T12:32:14.409Z,8.00
2019-05-03T12:34:42.709Z,7.90
2019-05-03T12:37:11.119Z,7.40
2019-05-03T12:39:39.208Z,7.73
2019-05-03T12:42:07.294Z,6.87
2019-05-03T12:44:35.592Z,7.37
2019-05-03T12:47:06.053Z,8.27
2019-05-03T12:49:35.730Z,8.47
2019-05-03T12:52:05.233Z,7.90
2019-05-03T12:54:35.635Z,10.73
2019-05-03T12:57:05.031Z,8.73
2019-05-03T12:59:37.705Z,7.47
2019-05-03T13:02:07.488Z,8.47
2019-05-03T13:04:37.557Z,6.57
2019-05-03T13:07:10.854Z,7.63
2019-05-03T13:09:39.268Z,6.63
2019-05-03T13:12:09.563Z,7.83
2019-05-03T13:14:37.666Z,7.47
2019-05-03T13:17:06.147Z,6.17
2019-05-03T13:19:34.950Z,6.00
2019-05-03T13:22:03.619Z,7.40
2019-05-03T13:24:31.710Z,7.13
2019-05-03T13:26:59.776Z,6.37
2019-05-03T13:29:28.204Z,7.23
2019-05-03T13:32:01.815Z,6.97
2019-05-03T13:34:26.777Z,7.47
2019-05-03T13:36:54.991Z,6.93
2019-05-03T13:39:26.296Z,6.30
2019-05-03T13:41:54.969Z,5.77
2019-05-03T13:44:24.779Z,12.03
2019-05-03T13:46:55.052Z,5.67
2019-05-03T13:49:23.150Z,6.53
2019-05-03T13:51:51.240Z,6.83
2019-05-03T13:54:19.321Z,7.17
2019-05-03T13:56:47.415Z,6.33
2019-05-03T13:59:19.916Z,7.33
2019-05-03T14:01:45.302Z,6.50
2019-05-03T14:04:14.801Z,7.20
2019-05-03T14:06:44.718Z,5.90
2019-05-03T14:09:13.326Z,6.80
2019-05-03T14:11:44.851Z,6.40
2019-05-03T14:14:15.066Z,6.50
2019-05-03T14:16:45.034Z,6.40
2019-05-03T14:19:14.729Z,6.20
2019-05-03T14:21:44.809Z,6.57
2019-05-03T14:24:13.249Z,6.57
2019-05-03T14:26:41.408Z,6.47
2019-05-03T14:29:10.026Z,5.97
2019-05-03T14:31:38.465Z,6.27
2019-05-03T14:34:07.254Z,6.23
2019-05-03T14:36:35.974Z,5.83
2019-05-03T14:39:09.218Z,6.17
2019-05-03T14:41:36.480Z,6.40
2019-05-03T14:44:05.022Z,6.80
2019-05-03T14:46:35.967Z,6.50
2019-05-03T14:49:05.347Z,5.70
2019-05-03T14:51:34.952Z,5.30
2019-05-03T14:54:05.344Z,5.47
2019-05-03T14:56:41.366Z,5.57
2019-05-03T14:59:27.410Z,5.03
2019-05-03T15:02:00.484Z,5.93
2019-05-03T15:04:28.606Z,5.27
2019-05-03T15:06:57.948Z,5.40
2019-05-03T15:09:26.581Z,5.47
2019-05-03T15:11:54.753Z,5.10
2019-05-03T15:14:25.141Z,5.57
2019-05-03T15:16:55.596Z,5.00
2019-05-03T15:19:25.237Z,5.60
2019-05-03T15:21:54.746Z,5.93
2019-05-03T15:24:25.077Z,5.60
2019-05-03T15:26:55.533Z,5.53
2019-05-03T15:29:24.661Z,5.33
2019-05-03T15:31:55.290Z,4.77
2019-05-03T15:34:44.583Z,4.60
2019-05-03T15:37:14.817Z,5.10
2019-05-03T15:39:45.204Z,5.30
2019-05-03T15:42:14.616Z,4.63
2019-05-03T15:44:47.363Z,5.10
2019-05-03T15:47:17.493Z,5.00
2019-05-03T15:49:45.901Z,4.70
2019-05-03T15:52:35.302Z,5.23
2019-05-03T15:55:06.131Z,4.90
2019-05-03T15:57:35.741Z,5.33
2019-05-03T16:00:07.750Z,4.90
2019-05-03T16:02:36.595Z,4.70
2019-05-03T16:05:06.353Z,4.70
2019-05-03T16:07:35.508Z,4.73
2019-05-03T16:10:05.185Z,4.77
2019-05-03T16:12:34.430Z,5.13
2019-05-03T16:15:24.423Z,4.73
2019-05-03T16:17:54.542Z,4.60
2019-05-03T16:20:22.722Z,4.40
2019-05-03T16:22:51.251Z,4.53
2019-05-03T16:25:20.235Z,5.20
2019-05-03T16:27:50.280Z,4.43
2019-05-03T16:30:20.472Z,2.90
2019-05-03T16:32:49.157Z,2.87
2019-05-03T16:35:17.962Z,2.20
2019-05-03T16:37:46.454Z,2.00
2019-05-03T16:40:16.794Z,4.33
2019-05-03T16:42:45.165Z,2.40
2019-05-03T16:45:14.461Z,2.33
2019-05-03T16:47:44.849Z,1.90
2019-05-03T16:50:14.470Z,1.87
2019-05-03T16:53:02.360Z,2.43
2019-05-03T16:55:30.847Z,2.50
2019-05-03T16:57:59.362Z,2.20
2019-05-03T17:00:28.173Z,2.27
2019-05-03T17:02:59.620Z,2.40
2019-05-03T17:05:41.748Z,2.73
2019-05-03T17:08:25.095Z,2.10
2019-05-03T17:11:14.838Z,4.40
2019-05-03T17:13:45.688Z,3.13
2019-05-03T17:16:14.546Z,5.47
2019-05-03T17:18:44.636Z,2.00
2019-05-03T17:21:32.529Z,8.33
2019-05-03T17:24:00.953Z,3.50
2019-05-03T17:26:29.366Z,2.87
2019-05-03T17:28:57.795Z,2.97
2019-05-03T17:31:26.200Z,2.97
2019-05-03T17:33:56.893Z,2.70
2019-05-03T17:36:25.138Z,5.87
2019-05-03T17:38:55.639Z,2.67
2019-05-03T17:41:31.706Z,6.20
2019-05-03T17:44:11.036Z,3.23
2019-05-03T17:46:39.811Z,3.10
2019-05-03T17:49:08.235Z,3.63
2019-05-03T17:51:41.143Z,4.10
2019-05-03T17:54:14.559Z,3.20
2019-05-03T17:57:10.142Z,5.23
2019-05-03T17:59:40.205Z,6.17
2019-05-03T18:02:26.456Z,5.27
2019-05-03T18:05:14.538Z,3.50
2019-05-03T18:08:01.182Z,2.77
2019-05-03T18:10:31.158Z,3.13
2019-05-03T18:12:59.268Z,3.73
2019-05-03T18:15:27.359Z,8.33
2019-05-03T18:17:55.450Z,33.30
2019-05-03T18:20:25.443Z,25.77
2019-05-03T18:22:54.674Z,4.37
2019-05-03T18:25:24.851Z,4.37
2019-05-03T18:27:55.199Z,4.13
2019-05-03T18:30:23.766Z,4.00
2019-05-03T18:32:51.841Z,3.60
2019-05-03T18:35:20.001Z,4.10
2019-05-03T18:37:49.727Z,4.90
2019-05-03T18:40:17.816Z,5.30
2019-05-03T18:42:55.080Z,4.30
2019-05-03T18:45:24.745Z,4.73
2019-05-03T18:47:54.433Z,19.77
2019-05-03T18:50:22.929Z,5.17
2019-05-03T18:52:51.627Z,4.00
2019-05-03T18:55:19.705Z,5.03
2019-05-03T18:57:49.099Z,5.20
2019-05-03T19:00:19.125Z,6.30
2019-05-03T19:02:47.543Z,6.00
2019-05-03T19:05:17.920Z,5.77
2019-05-03T19:07:50.933Z,5.50
2019-05-03T19:10:35.702Z,5.20
2019-05-03T19:13:05.839Z,5.17
2019-05-03T19:15:34.680Z,6.00
2019-05-03T19:18:04.463Z,6.33
2019-05-03T19:20:35.112Z,6.37
2019-05-03T19:23:04.865Z,4.70
2019-05-03T19:25:44.006Z,5.43
2019-05-03T19:28:07.443Z,4.17
2019-05-03T19:30:34.988Z,4.53
2019-05-03T19:33:04.369Z,4.43
2019-05-03T19:35:32.535Z,4.10
2019-05-03T19:38:00.967Z,3.57
2019-05-03T19:40:29.385Z,3.80
2019-05-03T19:42:57.823Z,3.33
2019-05-03T19:45:26.259Z,3.50
2019-05-03T19:47:55.177Z,3.73
2019-05-03T19:50:26.949Z,3.60
2019-05-03T19:53:00.676Z,3.63
2019-05-03T19:55:28.763Z,4.50
2019-05-03T19:57:57.244Z,5.90
2019-05-03T20:00:27.294Z,4.80
2019-05-03T20:03:04.671Z,4.50
2019-05-03T20:05:34.857Z,3.80
2019-05-03T20:08:05.225Z,4.43
2019-05-03T20:10:35.117Z,4.57
2019-05-03T20:13:04.670Z,5.90
2019-05-03T20:15:32.984Z,4.83
2019-05-03T20:18:01.075Z,5.93
2019-05-03T20:20:29.168Z,5.50
2019-05-03T20:22:59.031Z,5.30
2019-05-03T20:25:27.391Z,5.30
2019-05-03T20:27:55.914Z,5.07
2019-05-03T20:30:25.495Z,5.40
2019-05-03T20:32:55.552Z,4.80
2019-05-03T20:35:25.179Z,5.60
2019-05-03T20:37:55.348Z,5.07
2019-05-03T20:40:25.560Z,5.60
2019-05-03T20:42:58.550Z,5.40
2019-05-03T20:45:29.011Z,4.70
2019-05-03T20:47:58.713Z,4.90
2019-05-03T20:50:27.452Z,5.00
2019-05-03T20:52:55.528Z,5.40
2019-05-03T20:55:25.483Z,5.70
2019-05-03T20:57:54.919Z,5.07
2019-05-03T21:00:25.649Z,5.17
2019-05-03T21:03:00.146Z,5.27
2019-05-03T21:05:32.870Z,5.27
2019-05-03T21:07:58.691Z,5.90
2019-05-03T21:10:27.105Z,6.03
2019-05-03T21:12:55.518Z,5.00
2019-05-03T21:15:28.272Z,5.40
2019-05-03T21:18:04.847Z,6.13
2019-05-03T21:20:37.721Z,5.63
2019-05-03T21:23:11.112Z,5.47
2019-05-03T21:26:05.546Z,4.97
2019-05-03T21:28:13.630Z,5.63
2019-05-03T21:30:41.706Z,5.10
2019-05-03T21:33:09.792Z,4.50
2019-05-03T21:35:41.757Z,4.80
2019-05-03T21:38:08.356Z,4.40
2019-05-03T21:40:36.444Z,5.83
2019-05-03T21:43:04.854Z,5.20
2019-05-03T21:45:34.729Z,5.60
2019-05-03T21:48:05.093Z,5.80
2019-05-03T21:50:35.322Z,7.20
2019-05-03T21:53:05.640Z,6.33
2019-05-03T21:55:35.429Z,6.00
2019-05-03T21:58:04.678Z,6.17
2019-05-03T22:00:37.188Z,6.27
2019-05-03T22:03:05.684Z,6.50
2019-05-03T22:05:35.403Z,6.97
2019-05-03T22:08:04.569Z,7.27
2019-05-03T22:10:34.612Z,7.53
2019-05-03T22:13:04.886Z,7.27
2019-05-03T22:15:34.811Z,7.93
2019-05-03T22:18:24.742Z,7.63
2019-05-03T22:21:13.200Z,7.63
2019-05-03T22:23:48.841Z,7.63
2019-05-03T22:26:17.416Z,7.43
2019-05-03T22:28:45.512Z,7.37
2019-05-03T22:31:15.267Z,7.63
2019-05-03T22:33:44.686Z,7.27
2019-05-03T22:36:14.501Z,7.40
2019-05-03T22:38:42.784Z,6.23
2019-05-03T22:41:11.176Z,6.60
2019-05-03T22:43:39.609Z,6.83
2019-05-03T22:46:08.016Z,7.33
2019-05-03T22:48:36.108Z,6.67
2019-05-03T22:51:04.814Z,6.47
2019-05-03T22:53:34.356Z,6.97
2019-05-03T22:56:04.748Z,6.53
2019-05-03T22:58:35.342Z,6.40
2019-05-03T23:01:03.172Z,6.03
2019-05-03T23:03:35.318Z,6.23
2019-05-03T23:06:05.069Z,7.10
2019-05-03T23:08:34.496Z,6.80
2019-05-03T23:11:05.133Z,6.87
2019-05-03T23:13:32.681Z,6.77
2019-05-03T23:16:00.756Z,6.87
2019-05-03T23:18:28.844Z,7.40
2019-05-03T23:20:58.560Z,6.70
2019-05-03T23:23:45.546Z,6.63
2019-05-03T23:26:14.854Z,6.27
2019-05-03T23:28:44.591Z,6.83
2019-05-03T23:31:14.721Z,6.63
2019-05-03T23:33:45.076Z,6.40
2019-05-03T23:36:15.211Z,6.13
2019-05-03T23:38:45.006Z,5.60
2019-05-03T23:41:15.232Z,6.40
2019-05-03T23:43:44.916Z,6.87
2019-05-03T23:46:14.620Z,6.57
2019-05-03T23:48:44.663Z,6.33
2019-05-03T23:51:14.932Z,6.40
2019-05-03T23:53:44.641Z,7.13
2019-05-03T23:56:15.043Z,7.13
2019-05-03T23:58:44.638Z,6.57
